Terminal Aerodrome Forecast
Issued by NWS Wilmington, OH

Current Version | Previous Version | Text Only | Print | Product List | Glossary Off
Versions: 1 2 3 4 5 6 7 8 9 10 11 12 13 14 15 16 17 18 19 20 21 22 23 24

000
FTUS41 KILN 191700
TAFCVG
TAF
KCVG 191726Z 1918/2024 24005KT P6SM FEW030 BKN250
     FM200000 20004KT P6SM SCT250
     FM201000 20006KT P6SM BKN100
     FM201500 22012G18KT P6SM BKN080
     FM202000 23012G18KT P6SM VCSH BKN040=

USA.gov is the U.S. government's official web portal to all federal, state and local government web resources and services.